Time;durP1;ratioP1;P1;durP2;ratioP2;P2;SDS_P1;SDS_P2;PMS_P1;PMS_P2;Temp;Humidity;BMP_temperature;BMP_pressure;BME280_temperature;BME280_humidity;BME280_pressure;Samples;Min_cycle;Max_cycle;Signal;HPM_P1;HPM_P2
2023/08/01 00:00:35;;;;;;;56.70;2.40;;;;;;;;;;5071712;28;20483;-70
2023/08/01 00:03:02;;;;;;;57.07;2.50;;;;;;;;;;5071982;28;20920;-70
2023/08/01 00:05:29;;;;;;;56.60;2.57;;;;;;;;;;5071712;28;20454;-70
2023/08/01 00:07:56;;;;;;;59.83;3.20;;;;;;;;;;5071813;28;20526;-70
2023/08/01 00:10:23;;;;;;;56.50;2.20;;;;;;;;;;5071690;28;20538;-69
2023/08/01 00:12:50;;;;;;;56.17;2.00;;;;;;;;;;5072209;28;20830;-70
2023/08/01 00:15:18;;;;;;;57.00;2.50;;;;;;;;;;5072133;28;20454;-70
2023/08/01 00:17:46;;;;;;;57.37;2.30;;;;;;;;;;5071762;28;20452;-71
2023/08/01 00:20:13;;;;;;;56.47;2.20;;;;;;;;;;5071290;28;20461;-70
2023/08/01 00:22:40;;;;;;;57.47;2.30;;;;;;;;;;5071567;28;20906;-70
2023/08/01 00:25:08;;;;;;;56.50;2.47;;;;;;;;;;5071474;28;20767;-70
2023/08/01 00:27:35;;;;;;;56.47;2.10;;;;;;;;;;5071520;28;20469;-70
2023/08/01 00:30:02;;;;;;;56.57;2.23;;;;;;;;;;5071417;28;20449;-68
2023/08/01 00:32:29;;;;;;;56.50;2.30;;;;;;;;;;5071066;28;20478;-70
2023/08/01 00:34:57;;;;;;;56.47;2.20;;;;;;;;;;5071408;28;20862;-70
2023/08/01 00:37:25;;;;;;;60.20;4.10;;;;;;;;;;5071297;28;20445;-70
2023/08/01 00:39:52;;;;;;;56.83;2.40;;;;;;;;;;5071173;28;20974;-70
2023/08/01 00:42:19;;;;;;;56.50;2.30;;;;;;;;;;5071157;28;20498;-70
2023/08/01 00:44:47;;;;;;;56.60;2.27;;;;;;;;;;5071424;28;20948;-70
2023/08/01 00:47:14;;;;;;;57.87;3.43;;;;;;;;;;5071336;28;20466;-69
2023/08/01 00:49:42;;;;;;;56.50;2.50;;;;;;;;;;5071351;28;20455;-70
2023/08/01 00:52:11;;;;;;;56.47;2.40;;;;;;;;;;5070696;28;20444;-70
2023/08/01 00:54:38;;;;;;;56.70;2.67;;;;;;;;;;5071047;28;21159;-69
2023/08/01 00:57:06;;;;;;;56.90;3.43;;;;;;;;;;5071247;28;20450;-70
2023/08/01 00:59:34;;;;;;;56.60;2.30;;;;;;;;;;5071219;28;20826;-70
2023/08/01 01:02:01;;;;;;;56.43;2.60;;;;;;;;;;5070627;28;20490;-70
2023/08/01 01:04:29;;;;;;;56.80;2.77;;;;;;;;;;5071144;28;20475;-70
2023/08/01 01:06:59;;;;;;;56.50;2.60;;;;;;;;;;5070859;28;20822;-70
2023/08/01 01:09:31;;;;;;;56.27;2.13;;;;;;;;;;5070986;28;20974;-69
2023/08/01 01:11:58;;;;;;;56.60;2.30;;;;;;;;;;5070814;28;20497;-70
2023/08/01 01:14:25;;;;;;;56.90;2.40;;;;;;;;;;5071011;28;20442;-69
2023/08/01 01:16:52;;;;;;;56.37;2.20;;;;;;;;;;5070956;28;20538;-70
2023/08/01 01:19:19;;;;;;;57.90;3.50;;;;;;;;;;5070835;28;20454;-69
2023/08/01 01:21:49;;;;;;;57.10;2.50;;;;;;;;;;5070722;28;20495;-69
2023/08/01 01:24:16;;;;;;;56.70;2.70;;;;;;;;;;5070994;28;20447;-70
2023/08/01 01:26:44;;;;;;;56.40;2.27;;;;;;;;;;5070941;28;20443;-69
2023/08/01 01:29:12;;;;;;;56.50;2.20;;;;;;;;;;5070978;28;20445;-70
2023/08/01 01:31:40;;;;;;;56.87;2.30;;;;;;;;;;5070579;28;20714;-70
2023/08/01 01:34:07;;;;;;;57.30;3.57;;;;;;;;;;5070824;28;20808;-70
2023/08/01 01:36:35;;;;;;;56.63;2.13;;;;;;;;;;5070828;28;20878;-70
2023/08/01 01:39:03;;;;;;;57.47;2.60;;;;;;;;;;5070899;28;20828;-68
2023/08/01 01:41:30;;;;;;;56.37;2.10;;;;;;;;;;5070471;28;20854;-70
2023/08/01 01:43:57;;;;;;;56.40;2.30;;;;;;;;;;5071555;28;20459;-70
2023/08/01 01:46:24;;;;;;;56.80;2.53;;;;;;;;;;5074227;28;20443;-70
2023/08/01 01:48:51;;;;;;;56.27;2.10;;;;;;;;;;5074630;28;20443;-70
2023/08/01 01:51:19;;;;;;;57.30;2.63;;;;;;;;;;5074206;28;20450;-69
2023/08/01 01:53:46;;;;;;;58.03;2.40;;;;;;;;;;5074504;28;20459;-70
2023/08/01 01:56:14;;;;;;;57.00;2.93;;;;;;;;;;5073029;28;20818;-69
2023/08/01 01:58:41;;;;;;;59.37;2.80;;;;;;;;;;5074182;28;20443;-70
2023/08/01 02:01:08;;;;;;;56.50;2.40;;;;;;;;;;5074012;28;20486;-69
2023/08/01 02:03:36;;;;;;;57.40;2.97;;;;;;;;;;5074042;28;20467;-70
2023/08/01 02:06:04;;;;;;;56.33;2.17;;;;;;;;;;5073286;28;20439;-70
2023/08/01 02:08:31;;;;;;;56.23;2.40;;;;;;;;;;5074048;28;20447;-69
2023/08/01 02:10:58;;;;;;;56.40;2.40;;;;;;;;;;5073743;28;20819;-70
2023/08/01 02:13:27;;;;;;;56.50;2.20;;;;;;;;;;5074075;28;20834;-69
2023/08/01 02:15:54;;;;;;;56.40;2.30;;;;;;;;;;5073694;28;20537;-70
2023/08/01 02:18:22;;;;;;;56.67;2.30;;;;;;;;;;5073987;28;20444;-70
2023/08/01 02:20:49;;;;;;;56.43;2.20;;;;;;;;;;5073523;28;20534;-70
2023/08/01 02:23:16;;;;;;;56.30;2.40;;;;;;;;;;5073691;28;20574;-69
2023/08/01 02:25:43;;;;;;;56.47;2.43;;;;;;;;;;5073574;28;20451;-70
2023/08/01 02:28:10;;;;;;;56.60;2.53;;;;;;;;;;5073888;28;20450;-70
2023/08/01 02:30:39;;;;;;;56.37;2.30;;;;;;;;;;5073596;28;20454;-69
2023/08/01 02:33:06;;;;;;;57.30;4.20;;;;;;;;;;5073745;28;20474;-69
2023/08/01 02:35:33;;;;;;;56.47;2.40;;;;;;;;;;5073357;28;20959;-70
2023/08/01 02:38:02;;;;;;;56.80;2.40;;;;;;;;;;5073505;28;20447;-70
2023/08/01 02:40:29;;;;;;;56.67;2.90;;;;;;;;;;5073355;28;20452;-70
2023/08/01 02:42:56;;;;;;;56.47;2.40;;;;;;;;;;5073381;28;20503;-69
2023/08/01 02:45:24;;;;;;;57.00;3.07;;;;;;;;;;5073438;28;20534;-70
2023/08/01 02:47:52;;;;;;;56.60;2.43;;;;;;;;;;5073280;28;20443;-70
2023/08/01 02:50:19;;;;;;;56.47;2.40;;;;;;;;;;5072908;28;20447;-70
2023/08/01 02:55:50;;;;;;;56.57;2.20;;;;;;;;;;5071384;28;20934;-70
2023/08/01 02:58:17;;;;;;;56.80;2.47;;;;;;;;;;5073207;28;20793;-70
2023/08/01 03:00:44;;;;;;;57.60;2.80;;;;;;;;;;5072760;28;20449;-70
2023/08/01 03:03:13;;;;;;;56.40;2.40;;;;;;;;;;5072688;28;21091;-69
2023/08/01 03:05:40;;;;;;;56.57;2.20;;;;;;;;;;5073068;28;20447;-70
2023/08/01 03:08:07;;;;;;;56.57;2.30;;;;;;;;;;5073419;28;20446;-69
2023/08/01 03:10:34;;;;;;;57.10;3.33;;;;;;;;;;5072706;28;20444;-70
2023/08/01 03:13:01;;;;;;;56.37;2.40;;;;;;;;;;5072735;28;20466;-70
2023/08/01 03:15:28;;;;;;;57.67;2.20;;;;;;;;;;5072688;28;20823;-70
2023/08/01 03:17:55;;;;;;;56.40;2.20;;;;;;;;;;5072846;28;20443;-70
2023/08/01 03:20:24;;;;;;;56.50;2.63;;;;;;;;;;5072600;28;20443;-70
2023/08/01 03:22:51;;;;;;;56.60;2.60;;;;;;;;;;5072735;28;20502;-69
2023/08/01 03:25:18;;;;;;;56.57;2.57;;;;;;;;;;5072641;28;20962;-70
2023/08/01 03:27:45;;;;;;;56.60;2.20;;;;;;;;;;5073050;28;20447;-70
2023/08/01 03:30:12;;;;;;;56.37;2.37;;;;;;;;;;5072179;28;20446;-70
2023/08/01 03:32:39;;;;;;;56.17;2.10;;;;;;;;;;5072651;28;20452;-69
2023/08/01 03:35:07;;;;;;;56.30;2.40;;;;;;;;;;5072486;28;20455;-70
2023/08/01 03:37:35;;;;;;;56.40;2.20;;;;;;;;;;5072516;28;20818;-70
2023/08/01 03:40:02;;;;;;;56.47;2.40;;;;;;;;;;5072694;28;20452;-69
2023/08/01 03:42:30;;;;;;;56.90;2.87;;;;;;;;;;5071908;28;20491;-70
2023/08/01 03:44:57;;;;;;;56.17;2.00;;;;;;;;;;5072548;28;20819;-70
2023/08/01 03:47:24;;;;;;;56.70;2.37;;;;;;;;;;5072301;28;20439;-69
2023/08/01 03:49:51;;;;;;;56.27;2.30;;;;;;;;;;5072029;28;20448;-70
2023/08/01 03:52:19;;;;;;;56.50;2.10;;;;;;;;;;5071845;28;20467;-69
2023/08/01 03:54:47;;;;;;;56.17;2.00;;;;;;;;;;5071898;28;20466;-68
2023/08/01 03:57:15;;;;;;;56.70;2.30;;;;;;;;;;5071889;28;20446;-69
2023/08/01 03:59:42;;;;;;;56.37;2.30;;;;;;;;;;5072382;28;20454;-69
2023/08/01 04:02:09;;;;;;;56.30;2.10;;;;;;;;;;5071640;28;20578;-69
2023/08/01 04:04:36;;;;;;;57.90;2.43;;;;;;;;;;5071981;28;20452;-69
2023/08/01 04:07:04;;;;;;;56.70;2.40;;;;;;;;;;5072003;28;20449;-69
2023/08/01 04:09:31;;;;;;;56.20;2.30;;;;;;;;;;5072514;28;20462;-69
2023/08/01 04:11:59;;;;;;;56.37;2.60;;;;;;;;;;5072168;28;20446;-68
2023/08/01 04:14:27;;;;;;;56.80;2.40;;;;;;;;;;5073121;28;20443;-69
2023/08/01 04:16:54;;;;;;;55.97;2.00;;;;;;;;;;5073657;28;20501;-69
2023/08/01 04:19:21;;;;;;;56.03;2.00;;;;;;;;;;5073657;28;20451;-70
2023/08/01 04:21:48;;;;;;;56.40;2.50;;;;;;;;;;5072994;28;21023;-70
2023/08/01 04:24:15;;;;;;;56.20;2.00;;;;;;;;;;5073057;28;20468;-69
2023/08/01 04:26:42;;;;;;;55.97;2.20;;;;;;;;;;5073025;28;20449;-69
2023/08/01 04:29:15;;;;;;;56.20;2.00;;;;;;;;;;5072934;28;20454;-69
2023/08/01 04:31:42;;;;;;;56.07;1.90;;;;;;;;;;5072119;28;20447;-69
2023/08/01 04:34:09;;;;;;;55.77;1.90;;;;;;;;;;5072014;28;20459;-68
2023/08/01 04:36:36;;;;;;;56.17;1.90;;;;;;;;;;5071514;28;20450;-69
2023/08/01 04:39:03;;;;;;;58.10;2.50;;;;;;;;;;5072004;28;20939;-68
2023/08/01 04:41:30;;;;;;;56.17;2.07;;;;;;;;;;5071913;28;20443;-69
2023/08/01 04:43:57;;;;;;;56.30;2.30;;;;;;;;;;5071899;28;20467;-68
2023/08/01 04:46:26;;;;;;;56.27;2.10;;;;;;;;;;5071615;28;20830;-69
2023/08/01 04:48:53;;;;;;;56.10;2.00;;;;;;;;;;5072045;28;20967;-68
2023/08/01 04:51:20;;;;;;;56.70;2.33;;;;;;;;;;5071465;28;20461;-69
2023/08/01 04:53:47;;;;;;;56.10;2.17;;;;;;;;;;5071674;28;20826;-67
2023/08/01 04:56:14;;;;;;;56.40;2.20;;;;;;;;;;5071797;28;20447;-70
2023/08/01 04:58:41;;;;;;;56.37;2.60;;;;;;;;;;5071840;28;20819;-70
2023/08/01 05:01:09;;;;;;;56.33;2.00;;;;;;;;;;5072190;28;20474;-71
2023/08/01 05:03:37;;;;;;;56.40;2.20;;;;;;;;;;5071624;28;20495;-69
2023/08/01 05:06:04;;;;;;;56.20;2.20;;;;;;;;;;5072214;28;20966;-70
2023/08/01 05:08:31;;;;;;;55.97;1.90;;;;;;;;;;5072112;28;20451;-71
2023/08/01 05:10:58;;;;;;;56.37;2.30;;;;;;;;;;5071997;28;20455;-70
2023/08/01 05:13:25;;;;;;;56.60;2.13;;;;;;;;;;5071439;28;20911;-71
2023/08/01 05:15:53;;;;;;;56.80;2.70;;;;;;;;;;5071406;28;20454;-70
2023/08/01 05:18:20;;;;;;;56.27;2.00;;;;;;;;;;5071220;28;20463;-71
2023/08/01 05:20:48;;;;;;;56.27;2.17;;;;;;;;;;5075462;28;20446;-70
2023/08/01 05:23:15;;;;;;;56.17;1.97;;;;;;;;;;5075725;28;20497;-71
2023/08/01 05:25:42;;;;;;;56.00;2.20;;;;;;;;;;5075341;28;20451;-69
2023/08/01 05:28:09;;;;;;;56.17;2.00;;;;;;;;;;5075380;28;20883;-70
2023/08/01 05:30:36;;;;;;;56.07;1.90;;;;;;;;;;5074839;28;20439;-69
2023/08/01 05:33:04;;;;;;;56.50;1.80;;;;;;;;;;5074965;28;20474;-70
2023/08/01 05:35:31;;;;;;;56.57;2.40;;;;;;;;;;5075135;28;20452;-71
2023/08/01 05:38:00;;;;;;;57.17;3.23;;;;;;;;;;5075242;28;20455;-69
2023/08/01 05:40:27;;;;;;;56.27;1.97;;;;;;;;;;5074854;28;20501;-69
2023/08/01 05:42:54;;;;;;;56.60;2.10;;;;;;;;;;5074827;28;20544;-70
2023/08/01 05:45:21;;;;;;;56.27;2.43;;;;;;;;;;5074368;28;20457;-70
2023/08/01 05:47:48;;;;;;;56.30;2.00;;;;;;;;;;5074868;28;20461;-71
2023/08/01 05:50:15;;;;;;;56.50;2.30;;;;;;;;;;5074218;28;20939;-70
2023/08/01 05:52:42;;;;;;;56.30;2.10;;;;;;;;;;5074732;28;20460;-71
2023/08/01 05:55:11;;;;;;;56.40;2.30;;;;;;;;;;5074492;28;20459;-70
2023/08/01 05:57:38;;;;;;;56.60;2.10;;;;;;;;;;5074424;28;20518;-70
2023/08/01 06:00:06;;;;;;;59.23;2.40;;;;;;;;;;5074038;28;20466;-71
2023/08/01 06:02:33;;;;;;;56.30;2.00;;;;;;;;;;5074130;28;20495;-70
2023/08/01 06:05:00;;;;;;;57.07;3.30;;;;;;;;;;5074115;28;20947;-70
2023/08/01 06:07:27;;;;;;;57.10;2.30;;;;;;;;;;5074295;28;20452;-70
2023/08/01 06:09:54;;;;;;;56.33;1.97;;;;;;;;;;5074202;28;20447;-70
2023/08/01 06:12:23;;;;;;;56.40;2.10;;;;;;;;;;5073803;28;20539;-71
2023/08/01 06:14:50;;;;;;;56.80;2.87;;;;;;;;;;5074122;28;20837;-70
2023/08/01 06:17:17;;;;;;;56.37;2.13;;;;;;;;;;5074033;28;20454;-70
2023/08/01 06:19:44;;;;;;;56.80;2.67;;;;;;;;;;5074163;28;21098;-70
2023/08/01 06:22:11;;;;;;;56.50;2.20;;;;;;;;;;5073911;28;20485;-71
2023/08/01 06:24:38;;;;;;;56.37;2.47;;;;;;;;;;5074826;28;20447;-70
2023/08/01 06:27:06;;;;;;;57.47;2.60;;;;;;;;;;5074584;28;20527;-71
2023/08/01 06:29:34;;;;;;;57.30;2.30;;;;;;;;;;5074395;28;20444;-71
2023/08/01 06:32:02;;;;;;;56.40;2.10;;;;;;;;;;5074247;28;20444;-70
2023/08/01 06:34:29;;;;;;;55.80;1.97;;;;;;;;;;5074055;28;20854;-71
2023/08/01 06:36:56;;;;;;;56.30;2.30;;;;;;;;;;5073571;28;20440;-71
2023/08/01 06:39:23;;;;;;;56.70;2.53;;;;;;;;;;5073532;28;20439;-71
2023/08/01 06:41:50;;;;;;;56.20;1.80;;;;;;;;;;5073131;28;20447;-71
2023/08/01 06:44:17;;;;;;;56.50;2.60;;;;;;;;;;5073475;28;20479;-72
2023/08/01 06:46:45;;;;;;;56.27;2.13;;;;;;;;;;5073437;28;20443;-72
2023/08/01 06:49:13;;;;;;;57.37;3.40;;;;;;;;;;5073360;28;20444;-70
2023/08/01 06:51:41;;;;;;;60.97;3.27;;;;;;;;;;5072881;28;20951;-70
2023/08/01 06:54:09;;;;;;;56.37;2.20;;;;;;;;;;5072961;28;20475;-70
2023/08/01 06:56:36;;;;;;;57.30;3.63;;;;;;;;;;5073427;28;20455;-70
2023/08/01 06:59:03;;;;;;;56.90;2.67;;;;;;;;;;5073409;28;20621;-70
2023/08/01 07:01:30;;;;;;;56.67;2.40;;;;;;;;;;5072937;28;20455;-70
2023/08/01 07:03:58;;;;;;;56.80;2.30;;;;;;;;;;5053344;28;21019;-69
2023/08/01 07:06:26;;;;;;;56.90;2.70;;;;;;;;;;5052697;28;20444;-70
2023/08/01 07:08:53;;;;;;;56.57;2.10;;;;;;;;;;5052815;28;20450;-70
2023/08/01 07:11:20;;;;;;;56.50;2.23;;;;;;;;;;5052718;28;20452;-71
2023/08/01 07:13:47;;;;;;;56.63;2.27;;;;;;;;;;5052554;28;20463;-70
2023/08/01 07:16:14;;;;;;;56.80;2.30;;;;;;;;;;5052731;28;20436;-70
2023/08/01 07:18:41;;;;;;;57.27;2.83;;;;;;;;;;5052779;28;20758;-70
2023/08/01 07:21:10;;;;;;;56.50;2.37;;;;;;;;;;5052369;28;20451;-70
2023/08/01 07:23:37;;;;;;;56.70;2.30;;;;;;;;;;5052472;28;20492;-70
2023/08/01 07:26:04;;;;;;;56.43;2.50;;;;;;;;;;5052571;28;20447;-69
2023/08/01 07:28:31;;;;;;;58.10;2.90;;;;;;;;;;5052611;28;20451;-69
2023/08/01 07:31:01;;;;;;;56.70;2.20;;;;;;;;;;5052339;28;20449;-68
2023/08/01 07:33:28;;;;;;;57.10;2.50;;;;;;;;;;5052829;28;20460;-70
2023/08/01 07:35:55;;;;;;;56.50;2.93;;;;;;;;;;5052186;28;20448;-69
2023/08/01 07:38:24;;;;;;;56.50;2.67;;;;;;;;;;5052449;28;20451;-69
2023/08/01 07:40:51;;;;;;;57.63;2.70;;;;;;;;;;5051926;28;20446;-70
2023/08/01 07:43:19;;;;;;;57.00;2.50;;;;;;;;;;5051607;28;20480;-70
2023/08/01 07:45:46;;;;;;;56.63;3.07;;;;;;;;;;5052074;28;20646;-69
2023/08/01 07:48:13;;;;;;;56.77;2.30;;;;;;;;;;5051998;28;20539;-70
2023/08/01 07:50:40;;;;;;;61.63;3.10;;;;;;;;;;5051961;28;20442;-71
2023/08/01 07:53:07;;;;;;;56.57;2.20;;;;;;;;;;5052129;28;20468;-70
2023/08/01 07:55:36;;;;;;;56.77;2.37;;;;;;;;;;5051905;28;20526;-73
2023/08/01 07:58:03;;;;;;;56.67;2.40;;;;;;;;;;5052226;28;20451;-72
2023/08/01 08:00:30;;;;;;;58.37;3.17;;;;;;;;;;5051648;28;20451;-72
2023/08/01 08:02:57;;;;;;;58.63;3.80;;;;;;;;;;5051622;28;20488;-73
2023/08/01 08:05:24;;;;;;;56.60;2.47;;;;;;;;;;5052010;28;20817;-73
2023/08/01 08:07:51;;;;;;;56.73;2.47;;;;;;;;;;5051918;28;20444;-72
2023/08/01 08:10:18;;;;;;;56.73;2.50;;;;;;;;;;5051585;28;20444;-73
2023/08/01 08:12:47;;;;;;;56.67;2.30;;;;;;;;;;5051627;28;20472;-72
2023/08/01 08:15:15;;;;;;;56.87;2.43;;;;;;;;;;5051650;28;20937;-73
2023/08/01 08:17:43;;;;;;;56.70;2.70;;;;;;;;;;5051533;28;20448;-73
2023/08/01 08:20:10;;;;;;;56.67;2.27;;;;;;;;;;5051501;28;20444;-72
2023/08/01 08:22:37;;;;;;;56.80;2.50;;;;;;;;;;5051593;28;20491;-73
2023/08/01 08:25:04;;;;;;;56.80;2.40;;;;;;;;;;5051561;28;20484;-71
2023/08/01 08:27:31;;;;;;;56.87;2.27;;;;;;;;;;5051426;28;20451;-72
2023/08/01 08:30:00;;;;;;;57.67;2.50;;;;;;;;;;5051326;28;20532;-72
2023/08/01 08:32:27;;;;;;;56.63;2.47;;;;;;;;;;5051393;28;20468;-72
2023/08/01 08:34:54;;;;;;;56.50;2.63;;;;;;;;;;5051496;28;20448;-73
2023/08/01 08:37:21;;;;;;;56.60;2.10;;;;;;;;;;5051420;28;20445;-73
2023/08/01 08:39:48;;;;;;;56.63;2.00;;;;;;;;;;5051309;28;20451;-73
2023/08/01 08:42:15;;;;;;;56.80;2.97;;;;;;;;;;5050850;28;20472;-73
2023/08/01 08:44:44;;;;;;;56.27;2.50;;;;;;;;;;5050931;28;20495;-70
2023/08/01 08:47:13;;;;;;;56.30;2.30;;;;;;;;;;5050868;28;20486;-71
2023/08/01 08:49:41;;;;;;;56.77;2.57;;;;;;;;;;5051368;28;20444;-70
2023/08/01 08:52:09;;;;;;;56.40;2.30;;;;;;;;;;5050832;28;20448;-70
2023/08/01 08:54:37;;;;;;;56.20;2.20;;;;;;;;;;5050786;28;20780;-71
2023/08/01 08:57:06;;;;;;;56.47;2.47;;;;;;;;;;5050899;28;20455;-71
2023/08/01 08:59:33;;;;;;;56.60;2.80;;;;;;;;;;5051111;28;20459;-70
2023/08/01 09:02:03;;;;;;;56.47;2.07;;;;;;;;;;5050975;28;20535;-69
2023/08/01 09:04:31;;;;;;;56.40;2.20;;;;;;;;;;5051062;28;20855;-69
2023/08/01 09:07:00;;;;;;;56.17;2.07;;;;;;;;;;5051062;28;20450;-72
2023/08/01 09:09:27;;;;;;;56.40;2.50;;;;;;;;;;5050818;28;20984;-70
2023/08/01 09:11:56;;;;;;;56.40;2.20;;;;;;;;;;5050939;28;20590;-71
2023/08/01 09:14:23;;;;;;;56.37;2.23;;;;;;;;;;5051037;28;20956;-71
2023/08/01 09:16:51;;;;;;;56.70;2.47;;;;;;;;;;5051008;28;20801;-71
2023/08/01 09:19:19;;;;;;;56.17;2.17;;;;;;;;;;5051096;28;20448;-70
2023/08/01 09:21:48;;;;;;;55.97;1.90;;;;;;;;;;5050696;28;20456;-70
2023/08/01 09:24:15;;;;;;;56.33;1.93;;;;;;;;;;5050928;28;20843;-70
2023/08/01 09:26:43;;;;;;;56.70;2.10;;;;;;;;;;5051079;28;20459;-70
2023/08/01 09:29:10;;;;;;;56.17;2.10;;;;;;;;;;5050966;28;20832;-71
2023/08/01 09:31:38;;;;;;;56.43;2.23;;;;;;;;;;5050519;28;20783;-71
2023/08/01 09:34:06;;;;;;;56.60;2.70;;;;;;;;;;5050772;28;20460;-71
2023/08/01 09:36:34;;;;;;;56.50;2.30;;;;;;;;;;5050629;28;20451;-69
2023/08/01 09:39:02;;;;;;;56.27;2.10;;;;;;;;;;5050943;28;20441;-71
2023/08/01 09:41:30;;;;;;;56.50;2.50;;;;;;;;;;5050313;28;20471;-70
2023/08/01 09:43:57;;;;;;;56.23;2.10;;;;;;;;;;5050685;28;21011;-71
2023/08/01 09:46:25;;;;;;;56.50;2.10;;;;;;;;;;5050539;28;20929;-70
2023/08/01 09:48:52;;;;;;;56.30;2.10;;;;;;;;;;5050556;28;20445;-71
2023/08/01 09:51:20;;;;;;;56.40;2.17;;;;;;;;;;5050243;28;20444;-71
2023/08/01 09:53:48;;;;;;;56.50;2.20;;;;;;;;;;5050535;28;20460;-71
2023/08/01 09:56:20;;;;;;;56.37;2.33;;;;;;;;;;5050674;28;20452;-71
2023/08/01 09:58:47;;;;;;;56.20;2.00;;;;;;;;;;5050570;28;20449;-71
2023/08/01 10:01:15;;;;;;;56.20;2.10;;;;;;;;;;5050343;28;20444;-71
2023/08/01 10:03:45;;;;;;;56.10;2.00;;;;;;;;;;5050288;28;20860;-71
2023/08/01 10:06:14;;;;;;;56.27;2.50;;;;;;;;;;5053378;28;20440;-71
2023/08/01 10:08:42;;;;;;;56.20;2.20;;;;;;;;;;5054040;28;20458;-71
2023/08/01 10:11:10;;;;;;;56.13;1.90;;;;;;;;;;5053554;28;20452;-71
2023/08/01 10:13:38;;;;;;;56.90;3.30;;;;;;;;;;5053916;28;20840;-71
2023/08/01 10:16:07;;;;;;;56.30;2.00;;;;;;;;;;5053818;28;20455;-70
2023/08/01 10:18:34;;;;;;;56.70;2.33;;;;;;;;;;5054032;28;20452;-70
2023/08/01 10:21:01;;;;;;;56.40;2.10;;;;;;;;;;5053795;28;20886;-70
2023/08/01 10:23:29;;;;;;;56.17;2.10;;;;;;;;;;5053918;28;20466;-69
2023/08/01 10:25:56;;;;;;;58.20;2.97;;;;;;;;;;5053759;28;20454;-70
2023/08/01 10:28:32;;;;;;;57.00;2.67;;;;;;;;;;5053884;28;20793;-69
2023/08/01 10:31:09;;;;;;;56.50;2.10;;;;;;;;;;5053397;28;20961;-69
2023/08/01 10:33:36;;;;;;;56.00;2.20;;;;;;;;;;5053858;28;20522;-70
2023/08/01 10:36:13;;;;;;;56.13;2.00;;;;;;;;;;5053789;28;20444;-69
2023/08/01 10:38:45;;;;;;;56.30;2.00;;;;;;;;;;5053787;28;20959;-70
2023/08/01 10:41:19;;;;;;;56.23;2.07;;;;;;;;;;5053409;28;20448;-69
2023/08/01 10:43:46;;;;;;;56.27;2.10;;;;;;;;;;5053987;28;20487;-70
2023/08/01 10:46:15;;;;;;;56.17;2.07;;;;;;;;;;5053551;28;20971;-70
2023/08/01 10:48:49;;;;;;;57.10;2.47;;;;;;;;;;5053527;28;20445;-70
2023/08/01 10:51:16;;;;;;;56.47;2.20;;;;;;;;;;5053218;28;20451;-70
2023/08/01 10:53:43;;;;;;;56.27;2.00;;;;;;;;;;5053042;28;20468;-69
2023/08/01 10:56:18;;;;;;;56.10;2.20;;;;;;;;;;5053720;28;20531;-70
2023/08/01 10:58:45;;;;;;;56.40;2.20;;;;;;;;;;5053470;28;20498;-70
2023/08/01 11:01:12;;;;;;;56.20;1.83;;;;;;;;;;5053720;28;20470;-69
2023/08/01 11:03:41;;;;;;;55.77;1.80;;;;;;;;;;5053212;28;20468;-70
2023/08/01 11:06:08;;;;;;;55.97;1.50;;;;;;;;;;5053005;28;20808;-70
2023/08/01 11:08:36;;;;;;;56.27;1.70;;;;;;;;;;5053000;28;20441;-71
2023/08/01 11:11:04;;;;;;;56.27;1.50;;;;;;;;;;5052923;28;20451;-71
2023/08/01 11:13:34;;;;;;;56.07;1.60;;;;;;;;;;5053069;28;20468;-71
2023/08/01 11:16:01;;;;;;;55.67;1.50;;;;;;;;;;5053078;28;20582;-71
2023/08/01 11:18:28;;;;;;;55.97;1.53;;;;;;;;;;5052923;28;20479;-71
2023/08/01 11:20:57;;;;;;;55.80;1.50;;;;;;;;;;5052646;28;20444;-71
2023/08/01 11:23:29;;;;;;;56.07;1.60;;;;;;;;;;5052655;28;20491;-71
2023/08/01 11:25:56;;;;;;;55.67;1.50;;;;;;;;;;5052827;28;20484;-71
2023/08/01 11:28:24;;;;;;;55.73;1.50;;;;;;;;;;5052798;28;20456;-71
2023/08/01 11:30:51;;;;;;;56.07;1.70;;;;;;;;;;5052455;28;20444;-71
2023/08/01 11:33:20;;;;;;;55.63;1.70;;;;;;;;;;5052576;28;20464;-71
2023/08/01 11:35:47;;;;;;;56.50;1.80;;;;;;;;;;5052900;28;20487;-69
2023/08/01 11:38:16;;;;;;;55.93;1.63;;;;;;;;;;5052725;28;20444;-71
2023/08/01 11:40:43;;;;;;;56.27;1.70;;;;;;;;;;5052292;28;20455;-69
2023/08/01 11:43:10;;;;;;;56.13;1.80;;;;;;;;;;5052450;28;20984;-70
2023/08/01 11:45:37;;;;;;;56.40;1.70;;;;;;;;;;5052211;28;20490;-71
2023/08/01 11:48:05;;;;;;;56.70;1.90;;;;;;;;;;5052301;28;20448;-71
2023/08/01 11:50:32;;;;;;;55.87;1.80;;;;;;;;;;5051925;28;20452;-71
2023/08/01 11:52:59;;;;;;;56.30;1.70;;;;;;;;;;5052475;28;20466;-72
2023/08/01 11:55:28;;;;;;;56.20;1.70;;;;;;;;;;5051999;28;20454;-71
2023/08/01 11:57:56;;;;;;;55.87;1.60;;;;;;;;;;5052085;28;20444;-70
2023/08/01 12:00:24;;;;;;;55.73;1.90;;;;;;;;;;5051615;28;20440;-72
2023/08/01 12:02:51;;;;;;;60.43;3.43;;;;;;;;;;5052166;28;20821;-71
2023/08/01 12:05:25;;;;;;;55.53;1.50;;;;;;;;;;5051835;28;20492;-72
2023/08/01 12:07:52;;;;;;;55.50;1.43;;;;;;;;;;5051813;28;20455;-71
2023/08/01 12:10:20;;;;;;;56.30;1.60;;;;;;;;;;5051442;28;20452;-72
2023/08/01 12:12:48;;;;;;;55.77;1.47;;;;;;;;;;5051728;28;20468;-71
2023/08/01 12:15:16;;;;;;;55.67;1.70;;;;;;;;;;5051598;28;20457;-72
2023/08/01 12:17:43;;;;;;;55.70;1.40;;;;;;;;;;5051706;28;20440;-72
2023/08/01 12:20:10;;;;;;;55.87;1.50;;;;;;;;;;5051522;28;20446;-70
2023/08/01 12:22:37;;;;;;;55.70;1.40;;;;;;;;;;5051503;28;20464;-72
2023/08/01 12:25:05;;;;;;;56.07;1.60;;;;;;;;;;5051448;28;20988;-72
2023/08/01 12:27:32;;;;;;;55.47;1.60;;;;;;;;;;5050708;28;20951;-71
2023/08/01 12:30:00;;;;;;;55.80;1.30;;;;;;;;;;5051738;28;20447;-72
2023/08/01 12:32:27;;;;;;;55.97;1.90;;;;;;;;;;5051307;28;20471;-72
2023/08/01 12:34:54;;;;;;;55.53;1.60;;;;;;;;;;5051617;28;20825;-71
2023/08/01 12:37:21;;;;;;;55.67;1.33;;;;;;;;;;5051421;28;20452;-71
2023/08/01 12:39:48;;;;;;;56.00;1.50;;;;;;;;;;5051257;28;20443;-70
2023/08/01 12:42:16;;;;;;;55.90;1.70;;;;;;;;;;5051116;28;20468;-71
2023/08/01 12:44:43;;;;;;;55.97;1.70;;;;;;;;;;5051256;28;20488;-69
2023/08/01 12:47:11;;;;;;;55.37;1.57;;;;;;;;;;5050631;28;20444;-71
2023/08/01 12:49:39;;;;;;;55.77;1.60;;;;;;;;;;5051342;28;20441;-71
2023/08/01 12:52:06;;;;;;;56.10;1.50;;;;;;;;;;5051114;28;20445;-71
2023/08/01 12:54:33;;;;;;;56.50;1.93;;;;;;;;;;5051097;28;20468;-70
2023/08/01 12:57:00;;;;;;;56.03;1.90;;;;;;;;;;5050918;28;20956;-71
2023/08/01 12:59:27;;;;;;;56.00;1.70;;;;;;;;;;5050553;28;20562;-70
2023/08/01 13:01:54;;;;;;;55.73;1.50;;;;;;;;;;5050823;28;20450;-71
2023/08/01 13:04:23;;;;;;;55.67;1.40;;;;;;;;;;5051112;28;20444;-69
2023/08/01 13:06:50;;;;;;;56.00;1.50;;;;;;;;;;5051252;28;20455;-71
2023/08/01 13:09:17;;;;;;;55.67;1.47;;;;;;;;;;5051192;28;20440;-71
2023/08/01 13:11:44;;;;;;;55.67;1.40;;;;;;;;;;5051225;28;20467;-71
2023/08/01 13:14:11;;;;;;;55.90;1.60;;;;;;;;;;5051308;28;20497;-71
2023/08/01 13:16:38;;;;;;;55.87;1.47;;;;;;;;;;5051431;28;20440;-71
2023/08/01 13:19:06;;;;;;;56.10;1.60;;;;;;;;;;5051222;28;20454;-72
2023/08/01 13:21:34;;;;;;;55.80;1.60;;;;;;;;;;5050783;28;20444;-71
2023/08/01 13:24:04;;;;;;;55.77;1.40;;;;;;;;;;5051062;28;20552;-71
2023/08/01 13:26:31;;;;;;;55.57;1.60;;;;;;;;;;5051042;28;20840;-70
2023/08/01 13:28:58;;;;;;;55.80;1.50;;;;;;;;;;5051243;28;20455;-70
2023/08/01 13:31:26;;;;;;;55.67;1.50;;;;;;;;;;5050800;28;20451;-71
2023/08/01 13:33:53;;;;;;;56.30;1.50;;;;;;;;;;5051016;28;20466;-71
2023/08/01 13:36:20;;;;;;;55.47;1.40;;;;;;;;;;5050721;28;20445;-71
2023/08/01 13:38:48;;;;;;;55.37;1.30;;;;;;;;;;5050762;28;20824;-70
2023/08/01 13:41:15;;;;;;;55.97;1.70;;;;;;;;;;5053601;28;20547;-71
2023/08/01 13:43:42;;;;;;;55.70;1.60;;;;;;;;;;5054656;28;20491;-71
2023/08/01 13:46:14;;;;;;;55.47;1.50;;;;;;;;;;5054574;28;20490;-71
2023/08/01 13:48:41;;;;;;;55.80;1.40;;;;;;;;;;5054383;28;20937;-71
2023/08/01 13:51:08;;;;;;;55.57;1.50;;;;;;;;;;5054383;28;20444;-71
2023/08/01 13:53:39;;;;;;;55.57;1.50;;;;;;;;;;5054375;28;20471;-71
2023/08/01 13:56:07;;;;;;;55.37;1.53;;;;;;;;;;5054424;28;20850;-71
2023/08/01 13:58:34;;;;;;;55.47;1.47;;;;;;;;;;5054394;28;20436;-72
2023/08/01 14:01:03;;;;;;;55.67;1.47;;;;;;;;;;5054110;28;20815;-71
2023/08/01 14:03:30;;;;;;;55.70;1.50;;;;;;;;;;5053992;28;20468;-72
2023/08/01 14:05:57;;;;;;;55.60;1.70;;;;;;;;;;5054337;28;20488;-71
2023/08/01 14:08:24;;;;;;;55.47;1.50;;;;;;;;;;5054233;28;20440;-71
2023/08/01 14:10:51;;;;;;;55.90;1.70;;;;;;;;;;5053959;28;20440;-71
2023/08/01 14:13:20;;;;;;;55.60;1.40;;;;;;;;;;5054508;28;20460;-71
2023/08/01 14:15:47;;;;;;;55.43;1.40;;;;;;;;;;5053976;28;20440;-72
2023/08/01 14:18:14;;;;;;;55.47;1.50;;;;;;;;;;5054432;28;20550;-71
2023/08/01 14:20:41;;;;;;;56.00;2.37;;;;;;;;;;5053830;28;20450;-71
2023/08/01 14:23:08;;;;;;;55.40;1.40;;;;;;;;;;5054651;28;20472;-71
2023/08/01 14:25:35;;;;;;;55.77;1.50;;;;;;;;;;5053866;28;20763;-71
2023/08/01 14:28:02;;;;;;;59.10;2.23;;;;;;;;;;5054416;28;20763;-71
2023/08/01 14:30:31;;;;;;;55.50;1.50;;;;;;;;;;5053511;28;20444;-71
2023/08/01 14:33:00;;;;;;;55.57;1.70;;;;;;;;;;5053955;28;20851;-70
2023/08/01 14:35:27;;;;;;;55.97;1.60;;;;;;;;;;5053614;28;20440;-71